createdAt,value
2023-05-24T00:00:12.211Z,100455.15
2023-05-24T00:03:02.346Z,100456.17
2023-05-24T00:05:31.573Z,100452.61
2023-05-24T00:08:00.693Z,100449.69
2023-05-24T00:10:29.696Z,100449.89
2023-05-24T00:12:58.702Z,100446.89
2023-05-24T00:15:27.700Z,100446.46
2023-05-24T00:17:56.886Z,100442.55
2023-05-24T00:20:26.328Z,100445.00
2023-05-24T00:22:55.746Z,100442.74
2023-05-24T00:25:24.978Z,100444.59
2023-05-24T00:27:54.130Z,100444.26
2023-05-24T00:30:23.141Z,100442.98
2023-05-24T00:32:52.050Z,100439.49
2023-05-24T00:35:21.276Z,100437.59
2023-05-24T00:37:50.256Z,100434.90
2023-05-24T00:40:19.607Z,100437.01
2023-05-24T00:42:48.473Z,100433.27
2023-05-24T00:45:17.376Z,100436.34
2023-05-24T00:47:47.463Z,100433.45
2023-05-24T00:50:17.000Z,100438.73
2023-05-24T00:52:47.855Z,100438.34
2023-05-24T00:55:17.453Z,100435.92
2023-05-24T00:57:46.518Z,100436.92
2023-05-24T01:00:16.540Z,100439.95
2023-05-24T01:02:47.697Z,100437.19
2023-05-24T01:05:17.285Z,100436.11
2023-05-24T01:07:59.316Z,100435.20
2023-05-24T01:10:39.321Z,100430.33
2023-05-24T01:13:19.540Z,100430.55
2023-05-24T01:15:54.315Z,100429.58
2023-05-24T01:18:29.838Z,100431.00
2023-05-24T01:21:15.298Z,100430.84
2023-05-24T01:23:56.795Z,100431.05
2023-05-24T01:26:37.746Z,100433.73
2023-05-24T01:29:08.251Z,100434.13
2023-05-24T01:31:37.837Z,100439.02
2023-05-24T01:34:07.375Z,100439.52
2023-05-24T01:36:36.490Z,100439.29
2023-05-24T01:39:05.763Z,100439.41
2023-05-24T01:41:41.325Z,100443.80
2023-05-24T01:44:14.044Z,100446.71
2023-05-24T01:46:47.615Z,100451.83
2023-05-24T01:49:22.693Z,100452.33
2023-05-24T01:51:54.713Z,100451.45
2023-05-24T01:54:26.481Z,100451.82
2023-05-24T01:56:58.776Z,100446.58
2023-05-24T01:59:29.950Z,100447.25
2023-05-24T02:01:59.272Z,100444.15
2023-05-24T02:04:28.734Z,100442.21
2023-05-24T02:06:57.737Z,100437.65
2023-05-24T02:09:26.737Z,100441.51
2023-05-24T02:11:55.689Z,100440.96
2023-05-24T02:14:25.937Z,100438.48
2023-05-24T02:16:58.527Z,100440.67
2023-05-24T02:19:27.772Z,100438.94
2023-05-24T02:21:56.962Z,100443.23
2023-05-24T02:24:26.293Z,100449.19
2023-05-24T02:26:55.439Z,100450.84
2023-05-24T02:29:24.977Z,100452.30
2023-05-24T02:31:56.126Z,100450.55
2023-05-24T02:34:25.279Z,100453.90
2023-05-24T02:36:55.353Z,100454.30
2023-05-24T02:39:24.523Z,100455.95
2023-05-24T02:41:53.550Z,100456.95
2023-05-24T02:44:22.442Z,100458.06
2023-05-24T02:46:51.381Z,100460.10
2023-05-24T02:49:20.495Z,100456.19
2023-05-24T02:51:49.501Z,100456.01
2023-05-24T02:54:18.729Z,100457.83
2023-05-24T02:56:47.766Z,100458.96
2023-05-24T02:59:17.034Z,100460.98
2023-05-24T03:01:46.242Z,100460.70
2023-05-24T03:04:15.343Z,100459.98
2023-05-24T03:06:45.302Z,100465.00
2023-05-24T03:09:16.183Z,100461.23
2023-05-24T03:11:45.152Z,100461.94
2023-05-24T03:14:14.488Z,100464.35
2023-05-24T03:16:43.475Z,100465.91
2023-05-24T03:19:12.556Z,100463.89
2023-05-24T03:21:41.754Z,100462.23
2023-05-24T03:24:12.675Z,100462.95
2023-05-24T03:26:41.813Z,100468.27
2023-05-24T03:29:11.016Z,100468.16
2023-05-24T03:31:40.071Z,100466.35
2023-05-24T03:34:09.068Z,100466.02
2023-05-24T03:36:38.110Z,100468.29
2023-05-24T03:39:07.213Z,100469.27
2023-05-24T03:41:36.147Z,100473.80
2023-05-24T03:44:05.415Z,100479.05
2023-05-24T03:46:34.418Z,100479.54
2023-05-24T03:49:03.486Z,100479.52
2023-05-24T03:51:32.671Z,100479.63
2023-05-24T03:54:01.614Z,100481.17
2023-05-24T03:56:30.683Z,100480.48
2023-05-24T03:59:03.289Z,100484.63
2023-05-24T04:01:34.704Z,100486.42
2023-05-24T04:04:04.603Z,100485.55
2023-05-24T04:06:36.164Z,100482.17
2023-05-24T04:09:05.381Z,100481.85
2023-05-24T04:11:35.619Z,100482.53
2023-05-24T04:14:04.540Z,100479.82
2023-05-24T04:16:33.682Z,100483.79
2023-05-24T04:19:03.589Z,100486.31
2023-05-24T04:21:32.794Z,100483.32
2023-05-24T04:24:01.776Z,100483.52
2023-05-24T04:26:31.457Z,100486.05
2023-05-24T04:29:01.211Z,100485.17
2023-05-24T04:31:32.816Z,100489.09
2023-05-24T04:34:02.285Z,100492.16
2023-05-24T04:36:33.402Z,100494.92
2023-05-24T04:39:04.595Z,100498.59
2023-05-24T04:41:35.413Z,100498.46
2023-05-24T04:44:04.791Z,100496.98
2023-05-24T04:46:35.626Z,100495.27
2023-05-24T04:49:05.250Z,100494.51
2023-05-24T04:51:37.831Z,100491.02
2023-05-24T04:54:08.493Z,100490.44
2023-05-24T04:56:38.212Z,100487.91
2023-05-24T04:59:07.836Z,100490.72
2023-05-24T05:01:36.915Z,100494.33
2023-05-24T05:04:06.915Z,100497.31
2023-05-24T05:06:38.199Z,100501.05
2023-05-24T05:09:08.833Z,100505.93
2023-05-24T05:11:38.140Z,100504.87
2023-05-24T05:14:08.906Z,100505.67
2023-05-24T05:16:39.149Z,100503.61
2023-05-24T05:19:08.324Z,100501.85
2023-05-24T05:21:39.168Z,100501.86
2023-05-24T05:24:08.974Z,100505.47
2023-05-24T05:26:37.913Z,100507.41
2023-05-24T05:29:06.908Z,100512.80
2023-05-24T05:31:35.996Z,100519.16
2023-05-24T05:34:09.227Z,100521.45
2023-05-24T05:36:40.296Z,100523.61
2023-05-24T05:39:09.698Z,100526.15
2023-05-24T05:41:43.019Z,100528.60
2023-05-24T05:44:14.197Z,100527.31
2023-05-24T05:46:45.554Z,100525.23
2023-05-24T05:49:15.372Z,100529.13
2023-05-24T05:51:44.798Z,100534.06
2023-05-24T05:54:15.115Z,100533.67
2023-05-24T05:56:47.286Z,100537.83
2023-05-24T05:59:16.881Z,100537.11
2023-05-24T06:01:48.466Z,100540.73
2023-05-24T06:04:18.018Z,100534.69
2023-05-24T06:06:48.959Z,100539.46
2023-05-24T06:09:17.944Z,100539.97
2023-05-24T06:11:47.171Z,100539.06
2023-05-24T06:14:17.679Z,100539.98
2023-05-24T06:16:47.542Z,100545.73
2023-05-24T06:19:17.748Z,100545.55
2023-05-24T06:21:47.745Z,100544.86
2023-05-24T06:24:19.921Z,100546.24
2023-05-24T06:26:50.564Z,100539.97
2023-05-24T06:29:21.282Z,100538.49
2023-05-24T06:31:50.860Z,100538.11
2023-05-24T06:34:20.887Z,100539.88
2023-05-24T06:36:50.710Z,100538.50
2023-05-24T06:39:20.348Z,100538.53
2023-05-24T06:41:50.841Z,100539.30
2023-05-24T06:44:19.844Z,100545.10
2023-05-24T06:46:48.884Z,100544.32
2023-05-24T06:49:17.997Z,100543.45
2023-05-24T06:51:47.467Z,100546.02
2023-05-24T06:54:16.486Z,100545.81
2023-05-24T06:56:45.651Z,100543.30
2023-05-24T06:59:14.719Z,100541.25
2023-05-24T07:01:43.699Z,100540.38
2023-05-24T07:04:13.056Z,100542.69
2023-05-24T07:06:42.083Z,100538.89
2023-05-24T07:09:11.089Z,100535.55
2023-05-24T07:11:40.705Z,100540.55
2023-05-24T07:14:09.900Z,100546.17
2023-05-24T07:16:38.928Z,100543.85
2023-05-24T07:19:07.849Z,100543.30
2023-05-24T07:21:37.121Z,100539.58
2023-05-24T07:24:07.456Z,100539.98
2023-05-24T07:26:36.435Z,100542.72
2023-05-24T07:29:05.824Z,100544.33
2023-05-24T07:31:34.768Z,100543.23
2023-05-24T07:34:03.744Z,100546.73
2023-05-24T07:36:34.806Z,100547.48
2023-05-24T07:39:05.601Z,100550.89
2023-05-24T07:41:34.680Z,100549.61
2023-05-24T07:44:03.838Z,100553.36
2023-05-24T07:46:34.693Z,100556.41
2023-05-24T07:49:03.685Z,100557.04
2023-05-24T07:51:33.294Z,100561.45
2023-05-24T07:54:02.234Z,100564.58
2023-05-24T07:56:31.622Z,100563.27
2023-05-24T07:59:04.194Z,100563.64
2023-05-24T08:01:34.604Z,100562.30
2023-05-24T08:04:04.371Z,100560.73
2023-05-24T08:06:34.656Z,100555.34
2023-05-24T08:09:04.786Z,100558.08
2023-05-24T08:11:33.695Z,100551.58
2023-05-24T08:14:03.582Z,100550.91
2023-05-24T08:16:33.370Z,100546.96
2023-05-24T08:19:02.379Z,100548.79
2023-05-24T08:21:33.341Z,100548.40
2023-05-24T08:24:02.291Z,100551.11
2023-05-24T08:26:31.266Z,100551.61
2023-05-24T08:29:00.369Z,100549.20
2023-05-24T08:31:29.680Z,100552.71
2023-05-24T08:33:59.133Z,100551.94
2023-05-24T08:36:28.252Z,100553.59
2023-05-24T08:38:59.150Z,100554.43
2023-05-24T08:41:29.500Z,100556.36
2023-05-24T08:44:02.262Z,100552.98
2023-05-24T08:46:33.035Z,100554.29
2023-05-24T08:49:03.299Z,100551.27
2023-05-24T08:51:32.757Z,100551.75
2023-05-24T08:54:02.220Z,100554.67
2023-05-24T08:56:32.164Z,100549.00
2023-05-24T08:59:01.348Z,100550.93
2023-05-24T09:01:33.997Z,100550.55
2023-05-24T09:04:06.143Z,100552.14
2023-05-24T09:06:36.466Z,100547.68
2023-05-24T09:09:07.246Z,100555.61
2023-05-24T09:11:39.355Z,100553.60
2023-05-24T09:14:08.986Z,100550.88
2023-05-24T09:16:38.044Z,100547.33
2023-05-24T09:19:07.276Z,100543.13
2023-05-24T09:21:36.297Z,100542.30
2023-05-24T09:24:09.235Z,100542.83
2023-05-24T09:26:38.093Z,100543.63
2023-05-24T09:29:09.128Z,100542.42
2023-05-24T09:31:40.186Z,100544.48
2023-05-24T09:34:14.716Z,100537.50
2023-05-24T09:36:46.116Z,100541.27
2023-05-24T09:39:16.523Z,100545.25
2023-05-24T09:41:54.987Z,100546.98
2023-05-24T09:44:27.385Z,100545.06
2023-05-24T09:47:04.302Z,100539.05
2023-05-24T09:49:36.682Z,100538.34
2023-05-24T09:52:06.629Z,100534.71
2023-05-24T09:54:37.730Z,100544.13
2023-05-24T09:57:07.300Z,100541.79
2023-05-24T09:59:39.852Z,100535.55
2023-05-24T10:02:10.998Z,100533.35
2023-05-24T10:04:40.203Z,100531.85
2023-05-24T10:07:09.752Z,100528.92
2023-05-24T10:09:39.418Z,100524.56
2023-05-24T10:12:09.449Z,100522.83
2023-05-24T10:14:39.387Z,100515.88
2023-05-24T10:17:08.949Z,100513.29
2023-05-24T10:19:39.318Z,100513.14
2023-05-24T10:22:09.836Z,100511.83
2023-05-24T10:24:44.397Z,100508.48
2023-05-24T10:27:19.145Z,100508.52
2023-05-24T10:29:58.838Z,100508.84
2023-05-24T10:32:31.041Z,100507.71
2023-05-24T10:35:03.362Z,100510.61
2023-05-24T10:37:32.578Z,100509.19
2023-05-24T10:40:02.089Z,100507.23
2023-05-24T10:42:33.158Z,100504.75
2023-05-24T10:45:31.207Z,100503.83
2023-05-24T10:48:08.060Z,100503.21
2023-05-24T10:50:37.016Z,100500.20
2023-05-24T10:53:16.198Z,100504.02
2023-05-24T10:55:58.714Z,100502.05
2023-05-24T10:58:45.585Z,100496.86
2023-05-24T11:01:26.237Z,100495.26
2023-05-24T11:04:09.847Z,100493.38
2023-05-24T11:06:49.294Z,100500.40
2023-05-24T11:09:19.712Z,100492.17
2023-05-24T11:11:50.130Z,100485.00
2023-05-24T11:14:25.043Z,100487.47
2023-05-24T11:16:54.313Z,100484.83
2023-05-24T11:19:29.337Z,100483.75
2023-05-24T11:21:59.596Z,100481.10
2023-05-24T11:24:29.776Z,100479.56
2023-05-24T11:26:59.825Z,100481.27
2023-05-24T11:29:28.846Z,100477.77
2023-05-24T11:32:03.713Z,100471.45
2023-05-24T11:34:33.105Z,100464.48
2023-05-24T11:37:05.020Z,100463.23
2023-05-24T11:39:36.079Z,100461.10
2023-05-24T11:42:07.671Z,100458.73
2023-05-24T11:44:38.271Z,100457.35
2023-05-24T11:47:08.613Z,100448.35
2023-05-24T11:49:37.516Z,100443.25
2023-05-24T11:52:08.154Z,100449.81
2023-05-24T11:54:38.352Z,100444.92
2023-05-24T11:57:12.235Z,100439.59
2023-05-24T11:59:42.319Z,100440.85
2023-05-24T12:02:11.478Z,100439.81
2023-05-24T12:04:41.263Z,100440.92
2023-05-24T12:07:12.655Z,100435.59
2023-05-24T12:09:41.843Z,100436.31
2023-05-24T12:12:11.009Z,100431.29
2023-05-24T12:14:40.784Z,100427.95
2023-05-24T12:17:16.337Z,100428.09
2023-05-24T12:19:48.781Z,100420.60
2023-05-24T12:22:17.808Z,100412.34
2023-05-24T12:24:51.581Z,100416.77
2023-05-24T12:27:23.952Z,100412.13
2023-05-24T12:29:52.807Z,100411.09
2023-05-24T12:32:22.215Z,100407.91
2023-05-24T12:34:51.131Z,100403.53
2023-05-24T12:37:21.049Z,100406.70
2023-05-24T12:39:51.758Z,100403.83
2023-05-24T12:42:23.411Z,100404.08
2023-05-24T12:44:53.849Z,100403.20
2023-05-24T12:47:22.969Z,100400.60
2023-05-24T12:49:51.975Z,100401.08
2023-05-24T12:52:21.038Z,100398.73
2023-05-24T12:54:50.109Z,100400.64
2023-05-24T12:57:19.207Z,100398.66
2023-05-24T12:59:49.167Z,100398.02
2023-05-24T13:02:19.375Z,100395.19
2023-05-24T13:04:48.476Z,100392.75
2023-05-24T13:07:17.670Z,100389.98
2023-05-24T13:09:46.655Z,100391.52
2023-05-24T13:12:15.605Z,100391.91
2023-05-24T13:14:44.530Z,100387.61
2023-05-24T13:17:15.624Z,100388.70
2023-05-24T13:19:44.784Z,100390.54
2023-05-24T13:22:13.972Z,100396.85
2023-05-24T13:24:43.095Z,100397.05
2023-05-24T13:27:12.434Z,100393.67
2023-05-24T13:29:52.641Z,100396.05
2023-05-24T13:32:29.331Z,100395.68
2023-05-24T13:34:58.956Z,100397.06
2023-05-24T13:37:27.836Z,100401.34
2023-05-24T13:39:56.667Z,100396.48
2023-05-24T13:42:25.612Z,100389.94
2023-05-24T13:44:55.643Z,100390.73
2023-05-24T13:47:38.869Z,100391.36
2023-05-24T13:50:11.539Z,100385.27
2023-05-24T13:52:40.494Z,100383.15
2023-05-24T13:55:10.824Z,100389.85
2023-05-24T13:57:51.378Z,100385.36
2023-05-24T14:00:22.996Z,100385.16
2023-05-24T14:02:52.650Z,100381.70
2023-05-24T14:07:54.531Z,100388.73
2023-05-24T14:10:23.696Z,100387.78
2023-05-24T14:13:10.775Z,100382.65
2023-05-24T14:15:41.901Z,100383.75
2023-05-24T14:18:11.216Z,100380.55
2023-05-24T14:20:40.666Z,100379.13
2023-05-24T14:23:11.151Z,100375.82
2023-05-24T14:25:41.669Z,100378.80
2023-05-24T14:28:11.854Z,100369.80
2023-05-24T14:30:41.475Z,100371.88
2023-05-24T14:33:10.735Z,100368.71
2023-05-24T14:35:40.412Z,100369.31
2023-05-24T14:38:10.874Z,100368.54
2023-05-24T14:40:40.275Z,100366.70
2023-05-24T14:43:09.991Z,100366.73
2023-05-24T14:45:40.709Z,100364.05
2023-05-24T14:48:10.828Z,100359.44
2023-05-24T14:50:40.585Z,100362.92
2023-05-24T14:53:11.320Z,100363.84
2023-05-24T14:55:42.514Z,100365.46
2023-05-24T14:58:12.471Z,100362.81
2023-05-24T15:00:42.625Z,100361.30
2023-05-24T15:03:13.823Z,100361.34
2023-05-24T15:05:43.023Z,100360.92
2023-05-24T15:08:12.500Z,100350.45
2023-05-24T15:10:43.853Z,100344.73
2023-05-24T15:13:13.691Z,100341.45
2023-05-24T15:15:42.889Z,100341.36
2023-05-24T15:18:12.160Z,100342.14
2023-05-24T15:20:41.626Z,100343.84
2023-05-24T15:23:11.043Z,100344.33
2023-05-24T15:25:40.389Z,100346.74
2023-05-24T15:28:12.238Z,100348.57
2023-05-24T15:30:43.604Z,100346.29
2023-05-24T15:33:13.178Z,100345.33
2023-05-24T15:35:42.461Z,100349.76
2023-05-24T15:38:11.641Z,100353.05
2023-05-24T15:40:42.001Z,100356.09
2023-05-24T15:43:11.437Z,100352.30
2023-05-24T15:45:40.305Z,100355.63
2023-05-24T15:48:09.620Z,100352.76
2023-05-24T15:50:59.929Z,100360.30
2023-05-24T15:53:27.880Z,100364.01
2023-05-24T15:55:57.159Z,100361.74
2023-05-24T15:58:26.257Z,100365.20
2023-05-24T16:00:55.242Z,100371.42
2023-05-24T16:03:24.178Z,100369.41
2023-05-24T16:05:53.414Z,100372.95
2023-05-24T16:08:27.046Z,100378.55
2023-05-24T16:10:56.603Z,100375.62
2023-05-24T16:13:25.711Z,100381.86
2023-05-24T16:15:54.705Z,100376.79
2023-05-24T16:18:23.790Z,100379.82
2023-05-24T16:20:53.064Z,100380.79
2023-05-24T16:23:22.567Z,100376.88
2023-05-24T16:25:51.499Z,100377.66
2023-05-24T16:28:23.276Z,100375.27
2023-05-24T16:30:55.001Z,100377.00
2023-05-24T16:33:23.990Z,100375.86
2023-05-24T16:35:55.295Z,100379.83
2023-05-24T16:38:25.436Z,100380.13
2023-05-24T16:40:54.542Z,100375.90
2023-05-24T16:43:23.371Z,100387.50
2023-05-24T16:45:52.758Z,100388.52
2023-05-24T16:48:27.465Z,100392.67
2023-05-24T16:50:57.114Z,100397.23
2023-05-24T16:53:27.183Z,100397.92
2023-05-24T16:55:57.460Z,100403.45
2023-05-24T16:58:27.954Z,100416.51
2023-05-24T17:00:57.926Z,100415.70
2023-05-24T17:03:29.045Z,100423.82
2023-05-24T17:06:03.329Z,100425.98
2023-05-24T17:08:34.884Z,100429.36
2023-05-24T17:11:05.134Z,100430.38
2023-05-24T17:13:34.274Z,100430.27
2023-05-24T17:16:04.012Z,100435.84
2023-05-24T17:18:33.280Z,100437.88
2023-05-24T17:21:03.995Z,100438.98
2023-05-24T17:23:36.025Z,100441.44
2023-05-24T17:26:07.457Z,100446.41
2023-05-24T17:28:36.620Z,100451.48
2023-05-24T17:31:07.721Z,100451.21
2023-05-24T17:33:36.870Z,100455.95
2023-05-24T17:36:06.171Z,100455.34
2023-05-24T17:38:37.156Z,100458.29
2023-05-24T17:41:08.781Z,100459.98
2023-05-24T17:43:39.902Z,100461.52
2023-05-24T17:46:09.338Z,100460.66
2023-05-24T17:48:40.201Z,100463.36
2023-05-24T17:51:10.253Z,100462.11
2023-05-24T17:53:43.020Z,100462.24
2023-05-24T17:56:12.385Z,100459.98
2023-05-24T17:58:41.574Z,100466.67
2023-05-24T18:01:11.852Z,100466.19
2023-05-24T18:03:42.156Z,100465.51
2023-05-24T18:06:11.101Z,100465.66
2023-05-24T18:08:42.672Z,100471.73
2023-05-24T18:11:13.047Z,100477.66
2023-05-24T18:13:43.475Z,100482.81
2023-05-24T18:16:13.180Z,100490.11
2023-05-24T18:18:43.447Z,100496.45
2023-05-24T18:21:12.903Z,100507.07
2023-05-24T18:23:42.416Z,100512.72
2023-05-24T18:26:12.001Z,100511.42
2023-05-24T18:28:42.433Z,100510.39
2023-05-24T18:31:11.629Z,100511.05
2023-05-24T18:33:40.611Z,100511.14
2023-05-24T18:36:09.528Z,100515.20
2023-05-24T18:38:39.421Z,100518.59
2023-05-24T18:41:11.170Z,100526.45
2023-05-24T18:43:42.220Z,100536.71
2023-05-24T18:46:13.209Z,100539.83
2023-05-24T18:48:42.643Z,100543.75
2023-05-24T18:51:11.788Z,100550.48
2023-05-24T18:53:40.796Z,100550.00
2023-05-24T18:56:09.781Z,100552.81
2023-05-24T18:58:38.627Z,100551.69
2023-05-24T19:01:09.109Z,100555.60
2023-05-24T19:03:41.106Z,100555.76
2023-05-24T19:06:10.271Z,100557.45
2023-05-24T19:08:39.575Z,100552.05
2023-05-24T19:11:10.700Z,100553.33
2023-05-24T19:13:39.633Z,100553.88
2023-05-24T19:16:08.710Z,100553.95
2023-05-24T19:18:37.812Z,100553.53
2023-05-24T19:21:06.798Z,100556.36
2023-05-24T19:23:35.939Z,100557.17
2023-05-24T19:26:05.048Z,100553.23
2023-05-24T19:28:37.284Z,100556.71
2023-05-24T19:31:06.628Z,100551.70
2023-05-24T19:33:40.505Z,100556.00
2023-05-24T19:36:14.661Z,100554.96
2023-05-24T19:38:43.636Z,100552.83
2023-05-24T19:41:12.754Z,100543.67
2023-05-24T19:43:42.604Z,100538.02
2023-05-24T19:46:11.806Z,100533.86
2023-05-24T19:48:41.820Z,100537.10
2023-05-24T19:51:12.202Z,100538.34
2023-05-24T19:53:41.144Z,100536.05
2023-05-24T19:56:10.860Z,100542.12
2023-05-24T19:58:40.556Z,100541.89
2023-05-24T20:01:09.695Z,100539.83
2023-05-24T20:03:39.024Z,100540.55
2023-05-24T20:06:08.306Z,100539.68
2023-05-24T20:08:37.448Z,100540.06
2023-05-24T20:11:06.656Z,100542.29
2023-05-24T20:13:35.664Z,100540.60
2023-05-24T20:16:05.508Z,100543.27
2023-05-24T20:18:35.025Z,100541.08
2023-05-24T20:21:04.274Z,100538.63
2023-05-24T20:23:33.322Z,100540.23
2023-05-24T20:26:02.378Z,100541.16
2023-05-24T20:28:32.182Z,100545.33
2023-05-24T20:31:01.476Z,100543.61
2023-05-24T20:33:30.820Z,100549.70
2023-05-24T20:35:59.824Z,100549.97
2023-05-24T20:38:28.964Z,100550.08
2023-05-24T20:40:57.985Z,100553.86
2023-05-24T20:43:26.884Z,100560.38
2023-05-24T20:45:55.892Z,100562.41
2023-05-24T20:48:24.976Z,100560.43
2023-05-24T20:50:54.000Z,100567.34
2023-05-24T20:53:22.897Z,100561.58
2023-05-24T20:55:52.044Z,100562.09
2023-05-24T20:58:21.133Z,100563.39
2023-05-24T21:00:50.243Z,100558.53
2023-05-24T21:03:19.512Z,100561.48
2023-05-24T21:05:48.715Z,100560.45
2023-05-24T21:08:18.030Z,100562.41
2023-05-24T21:10:47.131Z,100566.62
2023-05-24T21:13:15.965Z,100573.87
2023-05-24T21:15:45.826Z,100574.61
2023-05-24T21:18:14.880Z,100582.35
2023-05-24T21:20:43.915Z,100587.09
2023-05-24T21:23:12.762Z,100587.65
2023-05-24T21:25:41.858Z,100587.20
2023-05-24T21:28:10.888Z,100587.16
2023-05-24T21:30:39.821Z,100586.27
2023-05-24T21:33:09.002Z,100588.44
2023-05-24T21:35:38.165Z,100585.80
2023-05-24T21:38:07.029Z,100584.65
2023-05-24T21:40:35.975Z,100585.17
2023-05-24T21:43:05.062Z,100591.06
2023-05-24T21:45:34.175Z,100593.22
2023-05-24T21:48:03.290Z,100588.81
2023-05-24T21:50:33.237Z,100591.17
2023-05-24T21:53:02.857Z,100592.83
2023-05-24T21:55:31.923Z,100590.57
2023-05-24T21:58:01.120Z,100591.77
2023-05-24T22:00:31.260Z,100589.71
2023-05-24T22:03:00.317Z,100595.55
2023-05-24T22:05:29.457Z,100589.23
2023-05-24T22:07:58.423Z,100589.16
2023-05-24T22:10:27.614Z,100584.48
2023-05-24T22:12:56.717Z,100586.59
2023-05-24T22:15:27.344Z,100587.67
2023-05-24T22:17:58.039Z,100592.06
2023-05-24T22:20:27.462Z,100587.20
2023-05-24T22:22:58.357Z,100589.47
2023-05-24T22:25:27.419Z,100594.95
2023-05-24T22:27:56.582Z,100599.31
2023-05-24T22:30:25.900Z,100603.05
2023-05-24T22:32:55.810Z,100597.58
2023-05-24T22:35:24.915Z,100598.58
2023-05-24T22:37:54.048Z,100595.31
2023-05-24T22:40:23.184Z,100597.34
2023-05-24T22:42:52.103Z,100592.48
2023-05-24T22:45:22.155Z,100593.77
2023-05-24T22:47:51.097Z,100596.35
2023-05-24T22:50:20.131Z,100596.73
2023-05-24T22:52:49.182Z,100607.39
2023-05-24T22:55:18.389Z,100609.77
2023-05-24T22:57:47.378Z,100602.50
2023-05-24T23:00:17.883Z,100603.11
2023-05-24T23:02:46.919Z,100607.11
2023-05-24T23:05:16.219Z,100612.00
2023-05-24T23:07:45.420Z,100611.30
2023-05-24T23:10:14.301Z,100612.30
2023-05-24T23:12:43.874Z,100606.48
2023-05-24T23:15:16.224Z,100603.20
2023-05-24T23:17:45.832Z,100603.01
2023-05-24T23:20:14.953Z,100601.67
2023-05-24T23:22:44.068Z,100605.52
2023-05-24T23:25:13.132Z,100602.17
2023-05-24T23:27:42.092Z,100599.40
2023-05-24T23:30:11.928Z,100600.17
2023-05-24T23:32:40.996Z,100600.42
2023-05-24T23:35:10.618Z,100604.61
2023-05-24T23:37:39.568Z,100607.19
2023-05-24T23:40:11.213Z,100602.12
2023-05-24T23:42:40.295Z,100594.86
2023-05-24T23:45:10.473Z,100595.39
2023-05-24T23:47:39.522Z,100597.47
2023-05-24T23:50:09.948Z,100592.11
2023-05-24T23:52:38.790Z,100592.27
2023-05-24T23:55:09.743Z,100588.05
2023-05-24T23:57:41.560Z,100584.23
